sensor_id;sensor_type;location;lat;lon;timestamp;temperature;humidity
20574;DHT22;10445;50.216;7.912;2024-01-06T00:00:56;4.40;61.80
20574;DHT22;10445;50.216;7.912;2024-01-06T00:03:26;4.40;62.20
20574;DHT22;10445;50.216;7.912;2024-01-06T00:05:54;4.40;61.30
20574;DHT22;10445;50.216;7.912;2024-01-06T00:08:23;4.40;60.90
20574;DHT22;10445;50.216;7.912;2024-01-06T00:10:51;4.40;61.70
20574;DHT22;10445;50.216;7.912;2024-01-06T00:13:20;4.40;60.50
20574;DHT22;10445;50.216;7.912;2024-01-06T00:15:48;4.40;61.20
20574;DHT22;10445;50.216;7.912;2024-01-06T00:18:17;4.40;60.70
20574;DHT22;10445;50.216;7.912;2024-01-06T00:20:47;4.40;61.30
20574;DHT22;10445;50.216;7.912;2024-01-06T00:23:15;4.40;62.70
20574;DHT22;10445;50.216;7.912;2024-01-06T00:25:45;4.40;62.80
20574;DHT22;10445;50.216;7.912;2024-01-06T00:28:13;4.40;63.10
20574;DHT22;10445;50.216;7.912;2024-01-06T00:30:42;4.40;62.40
20574;DHT22;10445;50.216;7.912;2024-01-06T00:33:11;4.40;62.00
20574;DHT22;10445;50.216;7.912;2024-01-06T00:35:40;4.40;62.80
20574;DHT22;10445;50.216;7.912;2024-01-06T00:38:10;4.40;63.00
20574;DHT22;10445;50.216;7.912;2024-01-06T00:40:38;4.40;63.30
20574;DHT22;10445;50.216;7.912;2024-01-06T00:43:07;4.40;64.50
20574;DHT22;10445;50.216;7.912;2024-01-06T00:45:35;4.40;63.10
20574;DHT22;10445;50.216;7.912;2024-01-06T00:48:04;4.40;63.20
20574;DHT22;10445;50.216;7.912;2024-01-06T00:50:33;4.40;61.10
20574;DHT22;10445;50.216;7.912;2024-01-06T00:53:01;4.50;60.00
20574;DHT22;10445;50.216;7.912;2024-01-06T00:55:31;4.50;60.00
20574;DHT22;10445;50.216;7.912;2024-01-06T00:57:59;4.50;59.40
20574;DHT22;10445;50.216;7.912;2024-01-06T01:00:28;4.50;59.20
20574;DHT22;10445;50.216;7.912;2024-01-06T01:02:56;4.50;59.60
20574;DHT22;10445;50.216;7.912;2024-01-06T01:05:24;4.50;60.30
20574;DHT22;10445;50.216;7.912;2024-01-06T01:07:53;4.50;61.80
20574;DHT22;10445;50.216;7.912;2024-01-06T01:10:21;4.50;62.10
20574;DHT22;10445;50.216;7.912;2024-01-06T01:12:51;4.40;63.70
20574;DHT22;10445;50.216;7.912;2024-01-06T01:15:19;4.40;65.70
20574;DHT22;10445;50.216;7.912;2024-01-06T01:17:48;4.40;65.60
20574;DHT22;10445;50.216;7.912;2024-01-06T01:20:16;4.40;65.50
20574;DHT22;10445;50.216;7.912;2024-01-06T01:22:44;4.40;66.20
20574;DHT22;10445;50.216;7.912;2024-01-06T01:25:13;4.40;67.00
20574;DHT22;10445;50.216;7.912;2024-01-06T01:27:41;4.50;65.10
20574;DHT22;10445;50.216;7.912;2024-01-06T01:30:12;4.50;65.00
20574;DHT22;10445;50.216;7.912;2024-01-06T01:32:41;4.50;64.00
20574;DHT22;10445;50.216;7.912;2024-01-06T01:35:09;4.50;65.10
20574;DHT22;10445;50.216;7.912;2024-01-06T01:37:38;4.50;64.10
20574;DHT22;10445;50.216;7.912;2024-01-06T01:40:07;4.50;65.30
20574;DHT22;10445;50.216;7.912;2024-01-06T01:42:35;4.50;64.40
20574;DHT22;10445;50.216;7.912;2024-01-06T01:45:05;4.50;63.30
20574;DHT22;10445;50.216;7.912;2024-01-06T01:47:36;4.50;63.90
20574;DHT22;10445;50.216;7.912;2024-01-06T01:50:07;4.50;63.30
20574;DHT22;10445;50.216;7.912;2024-01-06T01:52:36;4.50;64.50
20574;DHT22;10445;50.216;7.912;2024-01-06T01:55:06;4.50;64.10
20574;DHT22;10445;50.216;7.912;2024-01-06T01:57:34;4.50;64.10
20574;DHT22;10445;50.216;7.912;2024-01-06T02:00:04;4.50;65.00
20574;DHT22;10445;50.216;7.912;2024-01-06T02:02:32;4.50;65.90
20574;DHT22;10445;50.216;7.912;2024-01-06T02:05:02;4.50;66.90
20574;DHT22;10445;50.216;7.912;2024-01-06T02:07:31;4.50;67.60
20574;DHT22;10445;50.216;7.912;2024-01-06T02:09:59;4.50;67.60
20574;DHT22;10445;50.216;7.912;2024-01-06T02:12:28;4.50;68.10
20574;DHT22;10445;50.216;7.912;2024-01-06T02:14:56;4.50;69.10
20574;DHT22;10445;50.216;7.912;2024-01-06T02:17:24;4.50;67.20
20574;DHT22;10445;50.216;7.912;2024-01-06T02:19:53;4.40;69.50
20574;DHT22;10445;50.216;7.912;2024-01-06T02:22:25;4.40;68.70
20574;DHT22;10445;50.216;7.912;2024-01-06T02:24:53;4.50;68.50
20574;DHT22;10445;50.216;7.912;2024-01-06T02:27:22;4.40;69.60
20574;DHT22;10445;50.216;7.912;2024-01-06T02:29:50;4.40;70.80
20574;DHT22;10445;50.216;7.912;2024-01-06T02:32:19;4.40;70.80
20574;DHT22;10445;50.216;7.912;2024-01-06T02:34:47;4.40;70.80
20574;DHT22;10445;50.216;7.912;2024-01-06T02:37:15;4.40;71.90
20574;DHT22;10445;50.216;7.912;2024-01-06T02:39:45;4.40;72.50
20574;DHT22;10445;50.216;7.912;2024-01-06T02:42:14;4.40;73.00
20574;DHT22;10445;50.216;7.912;2024-01-06T02:44:42;4.50;71.60
20574;DHT22;10445;50.216;7.912;2024-01-06T02:47:11;4.40;72.40
20574;DHT22;10445;50.216;7.912;2024-01-06T02:49:39;4.50;71.40
20574;DHT22;10445;50.216;7.912;2024-01-06T02:52:07;4.50;71.90
20574;DHT22;10445;50.216;7.912;2024-01-06T02:54:36;4.50;71.00
20574;DHT22;10445;50.216;7.912;2024-01-06T02:57:05;4.50;71.70
20574;DHT22;10445;50.216;7.912;2024-01-06T02:59:34;4.40;73.00
20574;DHT22;10445;50.216;7.912;2024-01-06T03:02:03;4.40;75.20
20574;DHT22;10445;50.216;7.912;2024-01-06T03:04:31;4.40;75.00
20574;DHT22;10445;50.216;7.912;2024-01-06T03:06:59;4.40;75.30
20574;DHT22;10445;50.216;7.912;2024-01-06T03:09:28;4.30;76.40
20574;DHT22;10445;50.216;7.912;2024-01-06T03:11:56;4.30;77.70
20574;DHT22;10445;50.216;7.912;2024-01-06T03:14:26;4.40;78.20
20574;DHT22;10445;50.216;7.912;2024-01-06T03:16:54;4.30;77.60
20574;DHT22;10445;50.216;7.912;2024-01-06T03:19:24;4.30;78.40
20574;DHT22;10445;50.216;7.912;2024-01-06T03:21:55;4.30;77.70
20574;DHT22;10445;50.216;7.912;2024-01-06T03:24:25;4.40;77.70
20574;DHT22;10445;50.216;7.912;2024-01-06T03:26:54;4.40;77.60
20574;DHT22;10445;50.216;7.912;2024-01-06T03:29:22;4.30;77.20
20574;DHT22;10445;50.216;7.912;2024-01-06T03:31:52;4.30;78.20
20574;DHT22;10445;50.216;7.912;2024-01-06T03:34:20;4.30;77.80
20574;DHT22;10445;50.216;7.912;2024-01-06T03:36:49;4.30;78.00
20574;DHT22;10445;50.216;7.912;2024-01-06T03:39:17;4.30;79.10
20574;DHT22;10445;50.216;7.912;2024-01-06T03:41:45;4.40;77.40
20574;DHT22;10445;50.216;7.912;2024-01-06T03:44:14;4.40;77.30
20574;DHT22;10445;50.216;7.912;2024-01-06T03:46:42;4.30;77.40
20574;DHT22;10445;50.216;7.912;2024-01-06T03:49:12;4.40;77.60
20574;DHT22;10445;50.216;7.912;2024-01-06T03:51:40;4.30;77.80
20574;DHT22;10445;50.216;7.912;2024-01-06T03:54:09;4.30;78.30
20574;DHT22;10445;50.216;7.912;2024-01-06T03:56:37;4.40;78.30
20574;DHT22;10445;50.216;7.912;2024-01-06T03:59:06;4.40;78.10
20574;DHT22;10445;50.216;7.912;2024-01-06T04:01:34;4.40;77.70
20574;DHT22;10445;50.216;7.912;2024-01-06T04:04:03;4.50;77.60
20574;DHT22;10445;50.216;7.912;2024-01-06T04:06:33;4.50;77.10
20574;DHT22;10445;50.216;7.912;2024-01-06T04:09:01;4.50;77.60
20574;DHT22;10445;50.216;7.912;2024-01-06T04:11:30;4.40;78.80
20574;DHT22;10445;50.216;7.912;2024-01-06T04:13:58;4.40;79.80
20574;DHT22;10445;50.216;7.912;2024-01-06T04:16:26;4.40;81.70
20574;DHT22;10445;50.216;7.912;2024-01-06T04:18:55;4.40;81.90
20574;DHT22;10445;50.216;7.912;2024-01-06T04:21:23;4.40;81.90
20574;DHT22;10445;50.216;7.912;2024-01-06T04:23:53;4.40;81.70
20574;DHT22;10445;50.216;7.912;2024-01-06T04:26:23;4.40;81.80
20574;DHT22;10445;50.216;7.912;2024-01-06T04:28:51;4.40;82.00
20574;DHT22;10445;50.216;7.912;2024-01-06T04:31:19;4.40;82.60
20574;DHT22;10445;50.216;7.912;2024-01-06T04:33:48;4.30;82.70
20574;DHT22;10445;50.216;7.912;2024-01-06T04:36:16;4.30;84.00
20574;DHT22;10445;50.216;7.912;2024-01-06T04:38:45;4.40;84.40
20574;DHT22;10445;50.216;7.912;2024-01-06T04:41:14;4.40;84.90
20574;DHT22;10445;50.216;7.912;2024-01-06T04:43:43;4.40;85.00
20574;DHT22;10445;50.216;7.912;2024-01-06T04:46:11;4.40;85.70
20574;DHT22;10445;50.216;7.912;2024-01-06T04:48:41;4.30;87.20
20574;DHT22;10445;50.216;7.912;2024-01-06T04:51:10;4.30;89.40
20574;DHT22;10445;50.216;7.912;2024-01-06T04:53:39;4.20;89.70
20574;DHT22;10445;50.216;7.912;2024-01-06T04:56:07;4.20;90.60
20574;DHT22;10445;50.216;7.912;2024-01-06T04:58:37;4.10;92.50
20574;DHT22;10445;50.216;7.912;2024-01-06T05:01:06;4.10;92.90
20574;DHT22;10445;50.216;7.912;2024-01-06T05:03:35;4.20;93.70
20574;DHT22;10445;50.216;7.912;2024-01-06T05:06:04;4.20;94.00
20574;DHT22;10445;50.216;7.912;2024-01-06T05:08:32;4.20;94.30
20574;DHT22;10445;50.216;7.912;2024-01-06T05:11:03;4.20;94.60
20574;DHT22;10445;50.216;7.912;2024-01-06T05:13:32;4.10;94.90
20574;DHT22;10445;50.216;7.912;2024-01-06T05:16:02;4.20;95.20
20574;DHT22;10445;50.216;7.912;2024-01-06T05:18:30;4.20;94.90
20574;DHT22;10445;50.216;7.912;2024-01-06T05:20:59;4.20;95.30
20574;DHT22;10445;50.216;7.912;2024-01-06T05:23:27;4.20;95.60
20574;DHT22;10445;50.216;7.912;2024-01-06T05:25:56;4.20;95.90
20574;DHT22;10445;50.216;7.912;2024-01-06T05:28:24;4.20;95.10
20574;DHT22;10445;50.216;7.912;2024-01-06T05:30:52;4.20;95.30
20574;DHT22;10445;50.216;7.912;2024-01-06T05:33:22;4.30;95.30
20574;DHT22;10445;50.216;7.912;2024-01-06T05:35:51;4.30;95.10
20574;DHT22;10445;50.216;7.912;2024-01-06T05:38:19;4.30;94.60
20574;DHT22;10445;50.216;7.912;2024-01-06T05:40:48;4.30;94.20
20574;DHT22;10445;50.216;7.912;2024-01-06T05:43:16;4.20;94.40
20574;DHT22;10445;50.216;7.912;2024-01-06T05:45:44;4.20;94.90
20574;DHT22;10445;50.216;7.912;2024-01-06T05:48:13;4.20;95.50
20574;DHT22;10445;50.216;7.912;2024-01-06T05:50:43;4.20;95.60
20574;DHT22;10445;50.216;7.912;2024-01-06T05:53:11;4.30;96.60
20574;DHT22;10445;50.216;7.912;2024-01-06T05:55:41;4.30;95.70
20574;DHT22;10445;50.216;7.912;2024-01-06T05:58:09;4.30;96.20
20574;DHT22;10445;50.216;7.912;2024-01-06T06:00:38;4.30;95.30
20574;DHT22;10445;50.216;7.912;2024-01-06T06:03:07;4.30;94.90
20574;DHT22;10445;50.216;7.912;2024-01-06T06:05:35;4.30;95.70
20574;DHT22;10445;50.216;7.912;2024-01-06T06:08:06;4.30;96.10
20574;DHT22;10445;50.216;7.912;2024-01-06T06:10:34;4.30;96.40
20574;DHT22;10445;50.216;7.912;2024-01-06T06:13:19;4.30;96.60
20574;DHT22;10445;50.216;7.912;2024-01-06T06:15:47;4.20;97.40
20574;DHT22;10445;50.216;7.912;2024-01-06T06:18:15;4.30;97.10
20574;DHT22;10445;50.216;7.912;2024-01-06T06:20:44;4.30;97.50
20574;DHT22;10445;50.216;7.912;2024-01-06T06:23:14;4.30;97.00
20574;DHT22;10445;50.216;7.912;2024-01-06T06:25:42;4.30;97.30
20574;DHT22;10445;50.216;7.912;2024-01-06T06:28:10;4.30;97.20
20574;DHT22;10445;50.216;7.912;2024-01-06T06:30:39;4.30;96.40
20574;DHT22;10445;50.216;7.912;2024-01-06T06:33:07;4.20;96.90
20574;DHT22;10445;50.216;7.912;2024-01-06T06:35:36;4.20;97.40
20574;DHT22;10445;50.216;7.912;2024-01-06T06:38:04;4.30;98.40
20574;DHT22;10445;50.216;7.912;2024-01-06T06:40:34;4.20;98.40
20574;DHT22;10445;50.216;7.912;2024-01-06T06:43:03;4.30;98.60
20574;DHT22;10445;50.216;7.912;2024-01-06T06:45:31;4.20;98.70
20574;DHT22;10445;50.216;7.912;2024-01-06T06:48:00;4.20;98.80
20574;DHT22;10445;50.216;7.912;2024-01-06T06:50:28;4.20;99.00
20574;DHT22;10445;50.216;7.912;2024-01-06T06:52:56;4.20;98.80
20574;DHT22;10445;50.216;7.912;2024-01-06T06:55:25;4.20;98.60
20574;DHT22;10445;50.216;7.912;2024-01-06T06:57:55;4.20;98.40
20574;DHT22;10445;50.216;7.912;2024-01-06T07:00:24;4.10;98.70
20574;DHT22;10445;50.216;7.912;2024-01-06T07:02:52;4.10;99.90
20574;DHT22;10445;50.216;7.912;2024-01-06T07:05:21;4.20;99.90
20574;DHT22;10445;50.216;7.912;2024-01-06T07:07:49;4.10;99.80
20574;DHT22;10445;50.216;7.912;2024-01-06T07:10:17;4.10;99.60
20574;DHT22;10445;50.216;7.912;2024-01-06T07:12:46;4.00;98.70
20574;DHT22;10445;50.216;7.912;2024-01-06T07:15:16;3.90;98.60
20574;DHT22;10445;50.216;7.912;2024-01-06T07:17:44;3.80;98.70
20574;DHT22;10445;50.216;7.912;2024-01-06T07:20:13;3.70;98.80
20574;DHT22;10445;50.216;7.912;2024-01-06T07:22:41;3.70;99.20
20574;DHT22;10445;50.216;7.912;2024-01-06T07:25:10;3.70;99.90
20574;DHT22;10445;50.216;7.912;2024-01-06T07:27:39;3.70;99.90
20574;DHT22;10445;50.216;7.912;2024-01-06T07:30:08;3.80;99.90
20574;DHT22;10445;50.216;7.912;2024-01-06T07:32:38;3.90;99.90
20574;DHT22;10445;50.216;7.912;2024-01-06T07:35:07;4.00;99.90
20574;DHT22;10445;50.216;7.912;2024-01-06T07:37:35;4.10;99.90
20574;DHT22;10445;50.216;7.912;2024-01-06T07:40:04;4.10;99.90
20574;DHT22;10445;50.216;7.912;2024-01-06T07:42:33;4.10;99.90
20574;DHT22;10445;50.216;7.912;2024-01-06T07:45:01;4.10;99.90
20574;DHT22;10445;50.216;7.912;2024-01-06T07:47:30;4.10;99.90
20574;DHT22;10445;50.216;7.912;2024-01-06T07:50:00;4.20;99.90
20574;DHT22;10445;50.216;7.912;2024-01-06T07:52:28;4.20;99.90
20574;DHT22;10445;50.216;7.912;2024-01-06T07:54:57;4.20;99.90
20574;DHT22;10445;50.216;7.912;2024-01-06T07:57:25;4.20;99.90
20574;DHT22;10445;50.216;7.912;2024-01-06T07:59:53;4.20;99.90
20574;DHT22;10445;50.216;7.912;2024-01-06T08:02:22;4.20;99.90
20574;DHT22;10445;50.216;7.912;2024-01-06T08:04:50;4.30;99.90
20574;DHT22;10445;50.216;7.912;2024-01-06T08:07:21;4.30;99.90
20574;DHT22;10445;50.216;7.912;2024-01-06T08:09:49;4.30;99.90
20574;DHT22;10445;50.216;7.912;2024-01-06T08:12:17;4.40;99.90
20574;DHT22;10445;50.216;7.912;2024-01-06T08:14:46;4.30;99.90
20574;DHT22;10445;50.216;7.912;2024-01-06T08:17:14;4.30;99.90
20574;DHT22;10445;50.216;7.912;2024-01-06T08:19:45;4.40;99.90
20574;DHT22;10445;50.216;7.912;2024-01-06T08:22:15;4.40;99.90
20574;DHT22;10445;50.216;7.912;2024-01-06T08:24:44;4.30;99.90
20574;DHT22;10445;50.216;7.912;2024-01-06T08:27:14;4.40;99.90
20574;DHT22;10445;50.216;7.912;2024-01-06T08:29:42;4.30;99.90
20574;DHT22;10445;50.216;7.912;2024-01-06T08:32:11;4.30;99.90
20574;DHT22;10445;50.216;7.912;2024-01-06T08:34:40;4.30;99.90
20574;DHT22;10445;50.216;7.912;2024-01-06T08:37:08;4.40;99.90
20574;DHT22;10445;50.216;7.912;2024-01-06T08:39:36;4.40;99.90
20574;DHT22;10445;50.216;7.912;2024-01-06T08:42:06;4.40;99.90
20574;DHT22;10445;50.216;7.912;2024-01-06T08:44:35;4.50;99.90
20574;DHT22;10445;50.216;7.912;2024-01-06T08:47:04;4.60;99.90
20574;DHT22;10445;50.216;7.912;2024-01-06T08:49:32;4.60;99.90
20574;DHT22;10445;50.216;7.912;2024-01-06T08:52:01;4.70;99.90
20574;DHT22;10445;50.216;7.912;2024-01-06T08:54:29;4.80;99.90
20574;DHT22;10445;50.216;7.912;2024-01-06T08:56:57;4.90;99.90
20574;DHT22;10445;50.216;7.912;2024-01-06T08:59:27;4.90;99.00
20574;DHT22;10445;50.216;7.912;2024-01-06T09:01:56;4.90;98.90
20574;DHT22;10445;50.216;7.912;2024-01-06T09:04:24;5.00;98.80
20574;DHT22;10445;50.216;7.912;2024-01-06T09:06:53;5.00;98.20
20574;DHT22;10445;50.216;7.912;2024-01-06T09:09:22;5.00;96.70
20574;DHT22;10445;50.216;7.912;2024-01-06T09:11:51;4.90;97.80
20574;DHT22;10445;50.216;7.912;2024-01-06T09:14:20;4.90;99.00
20574;DHT22;10445;50.216;7.912;2024-01-06T09:16:49;4.90;98.80
20574;DHT22;10445;50.216;7.912;2024-01-06T09:19:18;4.90;99.20
20574;DHT22;10445;50.216;7.912;2024-01-06T09:21:46;5.00;98.90
20574;DHT22;10445;50.216;7.912;2024-01-06T09:24:14;4.90;98.70
20574;DHT22;10445;50.216;7.912;2024-01-06T09:26:43;5.00;98.20
20574;DHT22;10445;50.216;7.912;2024-01-06T09:29:12;4.90;97.80
20574;DHT22;10445;50.216;7.912;2024-01-06T09:31:42;5.00;98.80
20574;DHT22;10445;50.216;7.912;2024-01-06T09:34:12;4.90;98.60
20574;DHT22;10445;50.216;7.912;2024-01-06T09:36:41;4.90;99.60
20574;DHT22;10445;50.216;7.912;2024-01-06T09:39:09;4.90;99.90
20574;DHT22;10445;50.216;7.912;2024-01-06T09:41:38;5.00;99.90
20574;DHT22;10445;50.216;7.912;2024-01-06T09:44:06;5.00;99.90
20574;DHT22;10445;50.216;7.912;2024-01-06T09:46:35;5.00;99.90
20574;DHT22;10445;50.216;7.912;2024-01-06T09:49:08;4.90;99.90
20574;DHT22;10445;50.216;7.912;2024-01-06T09:51:39;5.00;99.90
20574;DHT22;10445;50.216;7.912;2024-01-06T09:54:09;5.00;99.90
20574;DHT22;10445;50.216;7.912;2024-01-06T09:56:39;5.00;99.90
20574;DHT22;10445;50.216;7.912;2024-01-06T09:59:07;5.00;99.90
20574;DHT22;10445;50.216;7.912;2024-01-06T10:01:36;5.00;99.90
20574;DHT22;10445;50.216;7.912;2024-01-06T10:04:04;5.10;99.90
20574;DHT22;10445;50.216;7.912;2024-01-06T10:06:34;5.00;99.90
20574;DHT22;10445;50.216;7.912;2024-01-06T10:09:05;5.10;99.90
20574;DHT22;10445;50.216;7.912;2024-01-06T10:11:36;5.10;99.90
20574;DHT22;10445;50.216;7.912;2024-01-06T10:14:04;5.10;99.90
20574;DHT22;10445;50.216;7.912;2024-01-06T10:16:34;5.10;99.90
20574;DHT22;10445;50.216;7.912;2024-01-06T10:19:03;5.10;99.90
20574;DHT22;10445;50.216;7.912;2024-01-06T10:21:32;5.10;99.90
20574;DHT22;10445;50.216;7.912;2024-01-06T10:24:01;5.10;99.90
20574;DHT22;10445;50.216;7.912;2024-01-06T10:26:31;5.20;99.90
20574;DHT22;10445;50.216;7.912;2024-01-06T10:28:59;5.10;99.90
20574;DHT22;10445;50.216;7.912;2024-01-06T10:31:29;5.10;99.90
20574;DHT22;10445;50.216;7.912;2024-01-06T10:33:57;5.10;99.90
20574;DHT22;10445;50.216;7.912;2024-01-06T10:36:26;5.10;99.90
20574;DHT22;10445;50.216;7.912;2024-01-06T10:38:55;5.10;99.90
20574;DHT22;10445;50.216;7.912;2024-01-06T10:41:24;5.10;99.90
20574;DHT22;10445;50.216;7.912;2024-01-06T10:43:54;5.10;99.90
20574;DHT22;10445;50.216;7.912;2024-01-06T10:46:23;5.10;99.90
20574;DHT22;10445;50.216;7.912;2024-01-06T10:48:52;5.10;99.90
20574;DHT22;10445;50.216;7.912;2024-01-06T10:51:25;5.10;99.90
20574;DHT22;10445;50.216;7.912;2024-01-06T10:53:58;5.00;99.90
20574;DHT22;10445;50.216;7.912;2024-01-06T10:56:29;5.00;99.90
20574;DHT22;10445;50.216;7.912;2024-01-06T10:58:59;4.90;99.90
20574;DHT22;10445;50.216;7.912;2024-01-06T11:01:29;4.80;99.90
20574;DHT22;10445;50.216;7.912;2024-01-06T11:03:59;4.80;99.90
20574;DHT22;10445;50.216;7.912;2024-01-06T11:06:28;4.70;99.90
20574;DHT22;10445;50.216;7.912;2024-01-06T11:09:04;4.80;99.90
20574;DHT22;10445;50.216;7.912;2024-01-06T11:11:35;4.70;99.90
20574;DHT22;10445;50.216;7.912;2024-01-06T11:14:22;4.70;99.90
20574;DHT22;10445;50.216;7.912;2024-01-06T11:16:53;4.70;99.90
20574;DHT22;10445;50.216;7.912;2024-01-06T11:19:44;4.70;99.90
20574;DHT22;10445;50.216;7.912;2024-01-06T11:22:20;4.70;99.90
20574;DHT22;10445;50.216;7.912;2024-01-06T11:24:51;4.70;99.90
20574;DHT22;10445;50.216;7.912;2024-01-06T11:27:23;4.60;99.90
20574;DHT22;10445;50.216;7.912;2024-01-06T11:29:57;4.60;99.90
20574;DHT22;10445;50.216;7.912;2024-01-06T11:32:29;4.70;99.90
20574;DHT22;10445;50.216;7.912;2024-01-06T11:35:06;4.70;99.90
20574;DHT22;10445;50.216;7.912;2024-01-06T11:37:39;4.70;99.90
20574;DHT22;10445;50.216;7.912;2024-01-06T11:40:23;4.60;99.90
20574;DHT22;10445;50.216;7.912;2024-01-06T11:43:01;4.70;99.90
20574;DHT22;10445;50.216;7.912;2024-01-06T11:45:32;4.70;99.90
20574;DHT22;10445;50.216;7.912;2024-01-06T11:48:03;4.60;99.90
20574;DHT22;10445;50.216;7.912;2024-01-06T11:50:34;4.70;99.90
20574;DHT22;10445;50.216;7.912;2024-01-06T11:53:03;4.60;99.90
20574;DHT22;10445;50.216;7.912;2024-01-06T11:55:32;4.60;99.90
20574;DHT22;10445;50.216;7.912;2024-01-06T11:58:02;4.50;99.90
20574;DHT22;10445;50.216;7.912;2024-01-06T12:00:33;4.50;99.90
20574;DHT22;10445;50.216;7.912;2024-01-06T12:03:04;4.40;99.90
20574;DHT22;10445;50.216;7.912;2024-01-06T12:05:32;4.30;99.90
20574;DHT22;10445;50.216;7.912;2024-01-06T12:08:02;4.20;99.90
20574;DHT22;10445;50.216;7.912;2024-01-06T12:10:34;4.10;99.90
20574;DHT22;10445;50.216;7.912;2024-01-06T12:13:05;4.00;99.90
20574;DHT22;10445;50.216;7.912;2024-01-06T12:15:37;4.00;99.90
20574;DHT22;10445;50.216;7.912;2024-01-06T12:18:07;4.00;99.90
20574;DHT22;10445;50.216;7.912;2024-01-06T12:20:36;3.90;99.90
20574;DHT22;10445;50.216;7.912;2024-01-06T12:23:05;4.00;99.90
20574;DHT22;10445;50.216;7.912;2024-01-06T12:25:34;4.00;99.90
20574;DHT22;10445;50.216;7.912;2024-01-06T12:28:07;4.00;99.90
20574;DHT22;10445;50.216;7.912;2024-01-06T12:30:38;4.00;99.90
20574;DHT22;10445;50.216;7.912;2024-01-06T12:33:08;4.00;99.90
20574;DHT22;10445;50.216;7.912;2024-01-06T12:35:38;4.00;99.90
20574;DHT22;10445;50.216;7.912;2024-01-06T12:38:09;4.00;99.90
20574;DHT22;10445;50.216;7.912;2024-01-06T12:40:38;4.00;99.90
20574;DHT22;10445;50.216;7.912;2024-01-06T12:43:06;4.00;99.90
20574;DHT22;10445;50.216;7.912;2024-01-06T12:45:36;4.00;99.90
20574;DHT22;10445;50.216;7.912;2024-01-06T12:48:05;3.90;99.90
20574;DHT22;10445;50.216;7.912;2024-01-06T12:50:34;3.90;99.90
20574;DHT22;10445;50.216;7.912;2024-01-06T12:53:03;4.00;99.90
20574;DHT22;10445;50.216;7.912;2024-01-06T12:55:31;4.00;99.90
20574;DHT22;10445;50.216;7.912;2024-01-06T12:58:00;4.10;99.90
20574;DHT22;10445;50.216;7.912;2024-01-06T13:00:31;4.10;99.90
20574;DHT22;10445;50.216;7.912;2024-01-06T13:03:04;4.10;99.90
20574;DHT22;10445;50.216;7.912;2024-01-06T13:05:33;4.10;99.90
20574;DHT22;10445;50.216;7.912;2024-01-06T13:08:02;4.10;99.90
20574;DHT22;10445;50.216;7.912;2024-01-06T13:10:31;4.00;99.90
20574;DHT22;10445;50.216;7.912;2024-01-06T13:13:01;4.00;99.90
20574;DHT22;10445;50.216;7.912;2024-01-06T13:15:33;4.00;99.90
20574;DHT22;10445;50.216;7.912;2024-01-06T13:18:12;4.00;99.90
20574;DHT22;10445;50.216;7.912;2024-01-06T13:20:42;4.00;99.90
20574;DHT22;10445;50.216;7.912;2024-01-06T13:23:12;3.90;99.90
20574;DHT22;10445;50.216;7.912;2024-01-06T13:25:40;4.00;99.90
20574;DHT22;10445;50.216;7.912;2024-01-06T13:28:09;3.90;99.90
20574;DHT22;10445;50.216;7.912;2024-01-06T13:30:39;3.90;99.90
20574;DHT22;10445;50.216;7.912;2024-01-06T13:33:11;3.90;99.90
20574;DHT22;10445;50.216;7.912;2024-01-06T13:35:40;3.90;99.90
20574;DHT22;10445;50.216;7.912;2024-01-06T13:38:09;3.90;99.90
20574;DHT22;10445;50.216;7.912;2024-01-06T13:40:38;3.80;99.90
20574;DHT22;10445;50.216;7.912;2024-01-06T13:43:06;3.70;99.90
20574;DHT22;10445;50.216;7.912;2024-01-06T13:45:43;3.60;99.90
20574;DHT22;10445;50.216;7.912;2024-01-06T13:48:13;3.50;99.90
20574;DHT22;10445;50.216;7.912;2024-01-06T13:50:43;3.40;99.90
20574;DHT22;10445;50.216;7.912;2024-01-06T13:53:12;3.40;99.90
20574;DHT22;10445;50.216;7.912;2024-01-06T13:55:41;3.40;99.90
20574;DHT22;10445;50.216;7.912;2024-01-06T13:58:10;3.30;99.90
20574;DHT22;10445;50.216;7.912;2024-01-06T14:00:38;3.20;99.90
20574;DHT22;10445;50.216;7.912;2024-01-06T14:03:07;3.30;99.90
20574;DHT22;10445;50.216;7.912;2024-01-06T14:05:37;3.20;99.90
20574;DHT22;10445;50.216;7.912;2024-01-06T14:08:07;3.20;99.90
20574;DHT22;10445;50.216;7.912;2024-01-06T14:10:35;3.20;99.90
20574;DHT22;10445;50.216;7.912;2024-01-06T14:13:05;3.30;99.90
20574;DHT22;10445;50.216;7.912;2024-01-06T14:15:34;3.30;99.90
20574;DHT22;10445;50.216;7.912;2024-01-06T14:18:04;3.40;99.90
20574;DHT22;10445;50.216;7.912;2024-01-06T14:20:32;3.30;99.90
20574;DHT22;10445;50.216;7.912;2024-01-06T14:23:06;3.40;99.90
20574;DHT22;10445;50.216;7.912;2024-01-06T14:25:37;3.30;99.90
20574;DHT22;10445;50.216;7.912;2024-01-06T14:28:06;3.30;99.90
20574;DHT22;10445;50.216;7.912;2024-01-06T14:30:34;3.30;99.90
20574;DHT22;10445;50.216;7.912;2024-01-06T14:33:03;3.40;99.90
20574;DHT22;10445;50.216;7.912;2024-01-06T14:35:31;3.40;99.90
20574;DHT22;10445;50.216;7.912;2024-01-06T14:38:00;3.40;99.90
20574;DHT22;10445;50.216;7.912;2024-01-06T14:40:29;3.40;99.90
20574;DHT22;10445;50.216;7.912;2024-01-06T14:42:58;3.40;99.90
20574;DHT22;10445;50.216;7.912;2024-01-06T14:45:29;3.40;99.90
20574;DHT22;10445;50.216;7.912;2024-01-06T14:47:58;3.30;99.90
20574;DHT22;10445;50.216;7.912;2024-01-06T14:50:26;3.40;99.90
20574;DHT22;10445;50.216;7.912;2024-01-06T14:52:55;3.30;99.90
20574;DHT22;10445;50.216;7.912;2024-01-06T14:55:23;3.30;99.90
20574;DHT22;10445;50.216;7.912;2024-01-06T14:57:53;3.40;99.90
20574;DHT22;10445;50.216;7.912;2024-01-06T15:00:23;3.30;99.90
20574;DHT22;10445;50.216;7.912;2024-01-06T15:02:52;3.40;99.90
20574;DHT22;10445;50.216;7.912;2024-01-06T15:05:20;3.30;99.90
20574;DHT22;10445;50.216;7.912;2024-01-06T15:07:50;3.30;99.90
20574;DHT22;10445;50.216;7.912;2024-01-06T15:10:18;3.30;99.90
20574;DHT22;10445;50.216;7.912;2024-01-06T15:12:46;3.30;99.90
20574;DHT22;10445;50.216;7.912;2024-01-06T15:15:16;3.20;99.90
20574;DHT22;10445;50.216;7.912;2024-01-06T15:17:45;3.20;99.90
20574;DHT22;10445;50.216;7.912;2024-01-06T15:20:13;3.20;99.90
20574;DHT22;10445;50.216;7.912;2024-01-06T15:22:42;3.20;99.90
20574;DHT22;10445;50.216;7.912;2024-01-06T15:25:11;3.20;99.90
20574;DHT22;10445;50.216;7.912;2024-01-06T15:27:39;3.20;99.90
20574;DHT22;10445;50.216;7.912;2024-01-06T15:30:08;3.20;99.90
20574;DHT22;10445;50.216;7.912;2024-01-06T15:32:40;3.20;99.90
20574;DHT22;10445;50.216;7.912;2024-01-06T15:35:09;3.30;99.90
20574;DHT22;10445;50.216;7.912;2024-01-06T15:37:38;3.30;99.90
20574;DHT22;10445;50.216;7.912;2024-01-06T15:40:07;3.30;99.90
20574;DHT22;10445;50.216;7.912;2024-01-06T15:42:37;3.20;99.90
20574;DHT22;10445;50.216;7.912;2024-01-06T15:45:06;3.10;99.90
20574;DHT22;10445;50.216;7.912;2024-01-06T15:47:35;3.10;99.90
20574;DHT22;10445;50.216;7.912;2024-01-06T15:50:06;3.10;99.90
20574;DHT22;10445;50.216;7.912;2024-01-06T15:52:35;3.00;99.90
20574;DHT22;10445;50.216;7.912;2024-01-06T15:55:05;3.00;99.90
20574;DHT22;10445;50.216;7.912;2024-01-06T15:57:33;3.00;99.90